Terminal Aerodrome Forecast
Issued by NWS Paducah, KY

Home | Current Version | Previous Version | Text Only | Print | Product List | Glossary On
Versions: 1 2 3 4 5 6 7 8 9 10 11 12 13 14 15 16 17 18 19 20 21 22 23 24
532
FTUS43 KPAH 271556 AAC
TAFEVV
TAF AMD
KEVV 271556Z 2716/2812 10006KT 6SM -TSRA BR BKN050CB
      TEMPO 2716/2718 3SM -TSRA BR BKN022CB
     FM271800 15006KT 5SM BR SCT020 OVC040
     FM272000 20012G22KT 3SM -TSRA BR OVC015CB
     FM280000 21007KT P6SM SCT020 BKN100
     FM280600 23003KT P6SM SCT100=

USA.gov is the U.S. government's official web portal to all federal, state and local government web resources and services.